createdAt,value
2019-04-10T00:02:25.834Z,52.97
2019-04-10T00:04:59.162Z,49.77
2019-04-10T00:07:31.715Z,52.37
2019-04-10T00:10:04.287Z,51.97
2019-04-10T00:12:36.762Z,51.73
2019-04-10T00:15:09.328Z,49.73
2019-04-10T00:17:42.941Z,47.70
2019-04-10T00:20:16.523Z,51.00
2019-04-10T00:22:48.945Z,51.10
2019-04-10T00:25:21.337Z,47.50
2019-04-10T00:27:54.842Z,49.27
2019-04-10T00:30:27.495Z,48.27
2019-04-10T00:33:00.541Z,49.60
2019-04-10T00:35:35.180Z,50.50
2019-04-10T00:38:07.771Z,49.67
2019-04-10T00:40:40.252Z,50.27
2019-04-10T00:43:12.804Z,47.80
2019-04-10T00:45:45.963Z,47.93
2019-04-10T00:48:19.378Z,48.47
2019-04-10T00:50:52.935Z,47.17
2019-04-10T00:53:29.507Z,48.23
2019-04-10T00:55:59.901Z,47.67
2019-04-10T00:58:32.428Z,43.73
2019-04-10T01:01:05.596Z,41.37
2019-04-10T01:03:46.689Z,48.27
2019-04-10T01:06:18.527Z,45.90
2019-04-10T01:08:51.072Z,46.07
2019-04-10T01:11:23.529Z,44.67
2019-04-10T01:13:56.989Z,42.83
2019-04-10T01:16:29.421Z,41.73
2019-04-10T01:19:01.875Z,44.33
2019-04-10T01:21:34.649Z,42.93
2019-04-10T01:24:07.075Z,43.93
2019-04-10T01:26:40.476Z,41.83
2019-04-10T01:29:13.412Z,42.10
2019-04-10T01:31:45.898Z,46.13
2019-04-10T01:34:19.023Z,42.80
2019-04-10T01:36:52.504Z,41.70
2019-04-10T01:39:28.566Z,45.57
2019-04-10T01:42:01.175Z,41.90
2019-04-10T01:44:33.596Z,43.03
2019-04-10T01:47:06.765Z,43.13
2019-04-10T01:49:39.883Z,44.00
2019-04-10T01:52:13.011Z,45.97
2019-04-10T01:54:45.685Z,46.07
2019-04-10T01:57:18.165Z,45.43
2019-04-10T01:59:50.527Z,44.87
2019-04-10T02:02:29.457Z,45.27
2019-04-10T02:05:01.927Z,45.17
2019-04-10T02:07:34.806Z,44.87
2019-04-10T02:10:07.959Z,43.27
2019-04-10T02:12:41.014Z,43.13
2019-04-10T02:15:15.550Z,42.73
2019-04-10T02:17:48.460Z,40.57
2019-04-10T02:20:21.285Z,43.63
2019-04-10T02:22:54.084Z,42.67
2019-04-10T02:25:26.651Z,43.13
2019-04-10T02:27:59.543Z,43.10
2019-04-10T02:30:32.623Z,42.00
2019-04-10T02:33:06.239Z,42.40
2019-04-10T02:35:40.052Z,43.70
2019-04-10T02:38:30.638Z,43.60
2019-04-10T02:40:47.518Z,42.77
2019-04-10T02:43:21.071Z,40.03
2019-04-10T02:45:53.646Z,41.33
2019-04-10T02:48:27.243Z,41.83
2019-04-10T02:51:01.706Z,42.00
2019-04-10T02:53:35.179Z,39.17
2019-04-10T02:56:07.793Z,39.33
2019-04-10T02:58:40.271Z,42.97
2019-04-10T03:01:13.482Z,42.50
2019-04-10T03:03:46.526Z,39.87
2019-04-10T03:06:20.533Z,44.70
2019-04-10T03:09:08.632Z,41.07
2019-04-10T03:11:27.977Z,42.27
2019-04-10T03:14:01.707Z,40.60
2019-04-10T03:16:35.466Z,42.70
2019-04-10T03:19:07.918Z,40.47
2019-04-10T03:21:40.380Z,42.07
2019-04-10T03:24:13.682Z,40.27
2019-04-10T03:26:46.286Z,40.97
2019-04-10T03:29:19.803Z,43.37
2019-04-10T03:31:56.478Z,43.30
2019-04-10T03:34:31.292Z,42.50
2019-04-10T03:37:02.961Z,42.20
2019-04-10T03:39:36.014Z,42.43
2019-04-10T03:42:08.554Z,39.47
2019-04-10T03:44:43.018Z,40.27
2019-04-10T03:47:15.471Z,39.07
2019-04-10T03:49:47.863Z,39.63
2019-04-10T03:52:21.097Z,38.87
2019-04-10T03:54:54.621Z,40.80
2019-04-10T03:57:27.114Z,40.37
2019-04-10T03:59:59.513Z,41.13
2019-04-10T04:02:31.938Z,40.17
2019-04-10T04:05:04.469Z,39.57
2019-04-10T04:07:36.919Z,39.90
2019-04-10T04:10:09.516Z,39.20
2019-04-10T04:12:43.041Z,40.33
2019-04-10T04:15:15.445Z,40.63
2019-04-10T04:17:48.541Z,39.27
2019-04-10T04:20:21.154Z,39.90
2019-04-10T04:22:53.651Z,39.97
2019-04-10T04:25:26.059Z,39.33
2019-04-10T04:27:58.468Z,39.87
2019-04-10T04:30:31.999Z,40.47
2019-04-10T04:33:04.793Z,37.93
2019-04-10T04:35:38.742Z,41.20
2019-04-10T04:38:13.338Z,40.07
2019-04-10T04:40:46.312Z,39.80
2019-04-10T04:43:18.905Z,40.73
2019-04-10T04:45:51.622Z,40.83
2019-04-10T04:48:26.255Z,41.30
2019-04-10T04:50:59.771Z,41.17
2019-04-10T04:53:32.658Z,41.27
2019-04-10T04:56:05.051Z,38.70
2019-04-10T04:58:38.139Z,37.20
2019-04-10T05:01:10.688Z,38.73
2019-04-10T05:03:44.274Z,39.20
2019-04-10T05:06:16.789Z,37.23
2019-04-10T05:08:49.226Z,35.53
2019-04-10T05:11:22.344Z,37.37
2019-04-10T05:13:55.934Z,35.90
2019-04-10T05:16:28.541Z,35.47
2019-04-10T05:19:01.728Z,34.93
2019-04-10T05:21:35.104Z,37.03
2019-04-10T05:24:07.661Z,35.07
2019-04-10T05:26:40.559Z,38.10
2019-04-10T05:29:13.199Z,38.97
2019-04-10T05:31:45.571Z,35.23
2019-04-10T05:34:18.002Z,37.57
2019-04-10T05:36:51.251Z,36.70
2019-04-10T05:39:24.470Z,34.03
2019-04-10T05:41:59.850Z,32.70
2019-04-10T05:44:32.675Z,35.20
2019-04-10T05:47:05.369Z,33.47
2019-04-10T05:49:37.996Z,32.77
2019-04-10T05:52:10.470Z,33.87
2019-04-10T05:54:43.806Z,36.97
2019-04-10T05:57:16.284Z,33.77
2019-04-10T05:59:48.714Z,34.97
2019-04-10T06:02:21.428Z,33.70
2019-04-10T06:04:53.892Z,34.87
2019-04-10T06:07:27.290Z,33.60
2019-04-10T06:10:04.816Z,35.40
2019-04-10T06:12:34.168Z,31.90
2019-04-10T06:15:07.419Z,33.97
2019-04-10T06:17:40.671Z,31.23
2019-04-10T06:20:14.207Z,30.70
2019-04-10T06:22:47.431Z,30.53
2019-04-10T06:25:24.032Z,31.10
2019-04-10T06:27:55.531Z,29.77
2019-04-10T06:30:28.102Z,28.30
2019-04-10T06:33:00.393Z,29.83
2019-04-10T06:35:32.830Z,28.03
2019-04-10T06:38:06.358Z,29.33
2019-04-10T06:40:38.936Z,29.90
2019-04-10T06:43:11.342Z,28.70
2019-04-10T06:45:44.000Z,30.33
2019-04-10T06:48:17.175Z,29.87
2019-04-10T06:50:50.714Z,31.37
2019-04-10T06:53:23.470Z,29.43
2019-04-10T06:55:56.963Z,29.57
2019-04-10T06:58:29.404Z,31.37
2019-04-10T07:01:01.961Z,29.70
2019-04-10T07:03:49.604Z,28.73
2019-04-10T07:06:16.666Z,31.20
2019-04-10T07:08:48.862Z,29.03
2019-04-10T07:11:19.913Z,29.67
2019-04-10T07:13:54.856Z,27.43
2019-04-10T07:16:30.915Z,24.40
2019-04-10T07:19:04.770Z,27.37
2019-04-10T07:21:37.600Z,23.30
2019-04-10T07:24:12.347Z,26.00
2019-04-10T07:26:46.586Z,26.10
2019-04-10T07:29:21.046Z,27.23
2019-04-10T07:31:52.940Z,25.20
2019-04-10T07:34:28.519Z,27.60
2019-04-10T07:37:00.243Z,25.73
2019-04-10T07:39:34.107Z,29.93
2019-04-10T07:42:06.804Z,26.33
2019-04-10T07:44:39.203Z,25.80
2019-04-10T07:47:11.636Z,28.33
2019-04-10T07:49:44.098Z,27.43
2019-04-10T07:52:17.123Z,24.37
2019-04-10T07:54:50.690Z,24.87
2019-04-10T07:57:23.133Z,27.13
2019-04-10T07:59:56.699Z,25.43
2019-04-10T08:02:29.632Z,24.67
2019-04-10T08:05:02.441Z,25.07
2019-04-10T08:07:37.738Z,24.70
2019-04-10T08:10:10.001Z,24.27
2019-04-10T08:12:49.087Z,26.87
2019-04-10T08:15:16.858Z,24.73
2019-04-10T08:17:50.815Z,23.30
2019-04-10T08:20:24.023Z,23.10
2019-04-10T08:22:57.382Z,26.07
2019-04-10T08:25:31.178Z,24.17
2019-04-10T08:28:03.657Z,23.90
2019-04-10T08:30:36.364Z,22.97
2019-04-10T08:33:09.775Z,22.33
2019-04-10T08:35:42.301Z,21.33
2019-04-10T08:38:15.156Z,21.63
2019-04-10T08:40:48.207Z,20.47
2019-04-10T08:43:20.750Z,21.43
2019-04-10T08:45:53.705Z,20.40
2019-04-10T08:48:29.983Z,20.93
2019-04-10T08:51:01.440Z,21.80
2019-04-10T08:53:34.170Z,21.10
2019-04-10T08:56:06.785Z,20.30
2019-04-10T08:58:39.224Z,20.87
2019-04-10T09:01:11.757Z,20.87
2019-04-10T09:03:44.198Z,20.77
2019-04-10T09:06:17.533Z,20.10
2019-04-10T09:08:51.161Z,20.67
2019-04-10T09:11:27.759Z,20.60
2019-04-10T09:13:58.672Z,20.47
2019-04-10T09:16:31.395Z,20.97
2019-04-10T09:19:03.853Z,20.17
2019-04-10T09:21:37.282Z,20.13
2019-04-10T09:24:10.222Z,18.87
2019-04-10T09:26:42.690Z,18.90
2019-04-10T09:29:16.065Z,18.27
2019-04-10T09:31:48.610Z,20.27
2019-04-10T09:34:21.041Z,18.30
2019-04-10T09:36:53.512Z,18.53
2019-04-10T09:39:27.640Z,19.20
2019-04-10T09:42:01.163Z,19.00
2019-04-10T09:44:33.735Z,17.83
2019-04-10T09:47:06.134Z,18.40
2019-04-10T09:49:43.165Z,17.50
2019-04-10T09:52:13.017Z,19.43
2019-04-10T09:54:45.452Z,21.73
2019-04-10T09:57:17.936Z,20.37
2019-04-10T09:59:50.363Z,19.77
2019-04-10T10:02:23.240Z,19.03
2019-04-10T10:04:55.777Z,16.70
2019-04-10T10:07:28.466Z,16.60
2019-04-10T10:10:01.562Z,16.77
2019-04-10T10:12:36.449Z,17.73
2019-04-10T10:15:09.718Z,17.70
2019-04-10T10:17:42.129Z,20.00
2019-04-10T10:20:15.431Z,18.27
2019-04-10T10:22:47.900Z,19.50
2019-04-10T10:25:21.430Z,19.17
2019-04-10T10:27:54.435Z,17.97
2019-04-10T10:30:27.267Z,17.57
2019-04-10T10:32:59.729Z,17.33
2019-04-10T10:35:32.183Z,17.53
2019-04-10T10:38:05.400Z,17.87
2019-04-10T10:40:38.003Z,17.17
2019-04-10T10:43:10.344Z,17.37
2019-04-10T10:45:42.954Z,16.50
2019-04-10T10:48:15.667Z,17.37
2019-04-10T10:50:48.146Z,17.47
2019-04-10T10:53:20.491Z,16.93
2019-04-10T10:55:53.958Z,19.53
2019-04-10T10:58:26.445Z,17.43
2019-04-10T11:00:59.794Z,17.37
2019-04-10T11:03:32.367Z,15.83
2019-04-10T11:06:04.800Z,16.27
2019-04-10T11:08:37.374Z,16.10
2019-04-10T11:11:10.254Z,15.77
2019-04-10T11:13:43.244Z,16.70
2019-04-10T11:16:17.094Z,15.47
2019-04-10T11:18:50.909Z,15.30
2019-04-10T11:21:24.673Z,15.13
2019-04-10T11:23:58.203Z,15.70
2019-04-10T11:26:30.861Z,15.33
2019-04-10T11:29:03.731Z,14.23
2019-04-10T11:31:38.118Z,14.47
2019-04-10T11:34:11.294Z,14.70
2019-04-10T11:36:44.079Z,13.10
2019-04-10T11:39:22.533Z,14.07
2019-04-10T11:41:50.622Z,14.73
2019-04-10T11:44:24.772Z,15.47
2019-04-10T11:46:58.580Z,14.53
2019-04-10T11:49:33.331Z,15.20
2019-04-10T11:52:06.361Z,15.23
2019-04-10T11:57:16.180Z,15.17
2019-04-10T11:59:48.920Z,14.07
2019-04-10T12:02:24.852Z,15.17
2019-04-10T12:05:01.670Z,15.00
2019-04-10T12:12:37.771Z,15.67
2019-04-10T12:15:10.250Z,16.60
2019-04-10T12:17:43.120Z,16.23
2019-04-10T12:20:16.724Z,18.07
2019-04-10T12:22:49.289Z,15.07
2019-04-10T12:25:22.872Z,22.93
2019-04-10T12:27:55.735Z,17.27
2019-04-10T12:30:28.983Z,17.13
2019-04-10T12:33:01.612Z,18.10
2019-04-10T12:35:36.051Z,18.23
2019-04-10T12:38:10.743Z,18.13
2019-04-10T12:40:42.746Z,17.30
2019-04-10T12:43:15.173Z,17.70
2019-04-10T12:45:48.544Z,17.90
2019-04-10T12:48:21.071Z,19.17
2019-04-10T12:50:53.500Z,18.33
2019-04-10T12:53:25.916Z,19.63
2019-04-10T12:55:58.321Z,19.40
2019-04-10T12:58:30.946Z,17.20
2019-04-10T13:01:06.726Z,17.90
2019-04-10T13:03:39.401Z,15.57
2019-04-10T13:06:16.447Z,15.17
2019-04-10T13:08:59.166Z,17.33
2019-04-10T13:11:24.406Z,17.23
2019-04-10T13:13:58.056Z,18.23
2019-04-10T13:16:30.673Z,17.07
2019-04-10T13:19:03.297Z,16.40
2019-04-10T13:21:36.840Z,15.20
2019-04-10T13:24:09.336Z,17.90
2019-04-10T13:26:42.040Z,18.03
2019-04-10T13:29:14.448Z,17.43
2019-04-10T13:31:47.088Z,16.50
2019-04-10T13:34:19.797Z,17.97
2019-04-10T13:36:52.209Z,18.90
2019-04-10T13:39:24.763Z,19.00
2019-04-10T13:41:57.186Z,19.17
2019-04-10T13:44:30.728Z,19.13
2019-04-10T13:47:03.396Z,18.43
2019-04-10T13:49:36.026Z,18.27
2019-04-10T13:52:08.412Z,18.43
2019-04-10T13:54:41.000Z,18.93
2019-04-10T13:57:14.620Z,16.80
2019-04-10T13:59:47.245Z,17.13
2019-04-10T14:02:34.049Z,17.93
2019-04-10T14:05:08.580Z,16.13
2019-04-10T14:07:42.215Z,18.13
2019-04-10T14:10:15.253Z,17.00
2019-04-10T14:12:49.350Z,16.93
2019-04-10T14:15:22.308Z,16.57
2019-04-10T14:17:54.767Z,16.50
2019-04-10T14:20:27.408Z,17.37
2019-04-10T14:23:18.166Z,15.30
2019-04-10T14:26:16.231Z,16.33
2019-04-10T14:28:49.705Z,14.63
2019-04-10T14:31:28.802Z,17.27
2019-04-10T14:34:02.149Z,17.33
2019-04-10T14:36:35.992Z,20.07
2019-04-10T14:39:19.652Z,16.30
2019-04-10T14:41:49.812Z,18.03
2019-04-10T14:44:23.325Z,16.13
2019-04-10T14:46:56.029Z,16.90
2019-04-10T14:49:29.285Z,15.93
2019-04-10T14:52:03.078Z,15.80
2019-04-10T14:54:35.791Z,15.57
2019-04-10T14:57:09.173Z,16.13
2019-04-10T14:59:42.220Z,16.23
2019-04-10T15:02:14.738Z,14.93
2019-04-10T15:04:49.060Z,16.27
2019-04-10T15:07:21.850Z,15.27
2019-04-10T15:09:54.300Z,16.13
2019-04-10T15:12:26.743Z,15.87
2019-04-10T15:15:00.212Z,17.37
2019-04-10T15:17:32.924Z,14.10
2019-04-10T15:20:06.922Z,14.23
2019-04-10T15:22:40.040Z,15.53
2019-04-10T15:25:12.992Z,14.80
2019-04-10T15:27:46.040Z,13.97
2019-04-10T15:30:18.600Z,13.93
2019-04-10T15:32:51.054Z,14.47
2019-04-10T15:35:24.354Z,14.10
2019-04-10T15:37:57.785Z,14.50
2019-04-10T15:40:30.360Z,17.67
2019-04-10T15:43:02.976Z,13.43
2019-04-10T15:45:35.747Z,13.43
2019-04-10T15:48:08.372Z,14.63
2019-04-10T15:50:41.416Z,14.40
2019-04-10T15:53:14.120Z,15.70
2019-04-10T15:55:47.574Z,16.13
2019-04-10T15:58:21.418Z,15.23
2019-04-10T16:00:54.133Z,14.47
2019-04-10T16:03:26.560Z,14.53
2019-04-10T16:05:58.887Z,16.03
2019-04-10T16:08:32.384Z,17.83
2019-04-10T16:11:36.222Z,16.03
2019-04-10T16:14:17.932Z,15.90
2019-04-10T16:17:15.179Z,15.33
2019-04-10T16:20:21.805Z,17.77
2019-04-10T16:23:14.267Z,15.90
2019-04-10T16:25:52.378Z,15.60
2019-04-10T16:28:25.177Z,15.33
2019-04-10T16:30:57.671Z,15.57
2019-04-10T16:33:31.895Z,15.37
2019-04-10T16:36:05.261Z,15.40
2019-04-10T16:38:40.595Z,14.83
2019-04-10T16:41:13.195Z,16.30
2019-04-10T16:43:46.692Z,15.83
2019-04-10T16:46:20.415Z,16.03
2019-04-10T16:48:53.401Z,15.43
2019-04-10T16:51:26.010Z,15.70
2019-04-10T16:53:58.422Z,15.47
2019-04-10T16:56:31.847Z,15.90
2019-04-10T16:59:04.702Z,15.57
2019-04-10T17:01:37.201Z,15.00
2019-04-10T17:04:09.591Z,16.60
2019-04-10T17:06:42.167Z,13.47
2019-04-10T17:09:17.083Z,14.67
2019-04-10T17:11:49.504Z,13.97
2019-04-10T17:14:22.204Z,14.47
2019-04-10T17:16:55.669Z,14.53
2019-04-10T17:19:28.730Z,13.43
2019-04-10T17:22:02.635Z,15.00
2019-04-10T17:24:35.520Z,13.80
2019-04-10T17:27:08.082Z,14.23
2019-04-10T17:29:41.069Z,13.17
2019-04-10T17:32:13.680Z,12.80
2019-04-10T17:34:47.120Z,13.73
2019-04-10T17:37:21.320Z,13.33
2019-04-10T17:39:53.787Z,14.10
2019-04-10T17:42:26.223Z,13.90
2019-04-10T17:45:00.180Z,13.47
2019-04-10T17:47:33.393Z,13.80
2019-04-10T17:50:07.806Z,13.63
2019-04-10T17:52:40.860Z,14.70
2019-04-10T17:55:15.491Z,13.77
2019-04-10T17:57:48.977Z,12.60
2019-04-10T18:00:29.558Z,13.37
2019-04-10T18:03:03.301Z,14.37
2019-04-10T18:05:37.087Z,12.07
2019-04-10T18:08:10.574Z,13.30
2019-04-10T18:10:49.425Z,14.43
2019-04-10T18:13:18.355Z,12.77
2019-04-10T18:15:50.859Z,12.63
2019-04-10T18:18:23.989Z,12.67
2019-04-10T18:20:56.677Z,12.97
2019-04-10T18:23:29.372Z,14.57
2019-04-10T18:26:02.825Z,13.90
2019-04-10T18:28:36.409Z,14.40
2019-04-10T18:31:10.459Z,13.03
2019-04-10T18:33:42.959Z,14.07
2019-04-10T18:36:15.430Z,13.20
2019-04-10T18:38:47.997Z,13.93
2019-04-10T18:41:20.608Z,15.83
2019-04-10T18:43:53.004Z,15.03
2019-04-10T18:46:25.519Z,14.37
2019-04-10T18:48:58.993Z,13.70
2019-04-10T18:51:32.054Z,14.47
2019-04-10T18:54:04.539Z,14.43
2019-04-10T18:56:37.603Z,13.13
2019-04-10T18:59:22.583Z,14.20
2019-04-10T19:02:28.758Z,13.30
2019-04-10T19:05:14.093Z,13.47
2019-04-10T19:07:46.588Z,13.63
2019-04-10T19:10:19.883Z,13.73
2019-04-10T19:12:52.856Z,13.87
2019-04-10T19:15:25.490Z,13.70
2019-04-10T19:17:57.905Z,14.80
2019-04-10T19:20:31.406Z,13.63
2019-04-10T19:23:04.415Z,12.80
2019-04-10T19:25:36.886Z,21.23
2019-04-10T19:28:10.732Z,14.70
2019-04-10T19:30:51.210Z,12.43
2019-04-10T19:33:23.806Z,14.03
2019-04-10T19:35:56.345Z,12.33
2019-04-10T19:38:29.425Z,15.10
2019-04-10T19:41:02.620Z,11.87
2019-04-10T19:43:35.332Z,13.93
2019-04-10T19:46:09.202Z,12.33
2019-04-10T19:48:41.640Z,11.80
2019-04-10T19:51:14.991Z,12.80
2019-04-10T19:53:49.087Z,12.43
2019-04-10T19:56:21.699Z,14.47
2019-04-10T19:58:54.509Z,12.07
2019-04-10T20:01:29.646Z,12.23
2019-04-10T20:04:02.028Z,12.50
2019-04-10T20:06:36.261Z,11.20
2019-04-10T20:09:10.491Z,12.20
2019-04-10T20:11:49.676Z,12.17
2019-04-10T20:14:17.648Z,12.93
2019-04-10T20:16:51.270Z,11.40
2019-04-10T20:19:24.612Z,11.90
2019-04-10T20:21:57.091Z,10.90
2019-04-10T20:24:29.524Z,11.87
2019-04-10T20:27:03.472Z,11.43
2019-04-10T20:29:37.333Z,11.00
2019-04-10T20:32:10.923Z,11.43
2019-04-10T20:34:44.037Z,11.40
2019-04-10T20:37:16.436Z,11.03
2019-04-10T20:39:49.572Z,10.73
2019-04-10T20:42:22.317Z,12.77
2019-04-10T20:44:56.768Z,14.70
2019-04-10T20:47:30.946Z,11.80
2019-04-10T20:50:05.835Z,12.27
2019-04-10T20:52:40.803Z,13.07
2019-04-10T20:55:13.564Z,10.63
2019-04-10T20:57:45.967Z,10.70
2019-04-10T21:00:27.919Z,11.53
2019-04-10T21:03:00.730Z,12.00
2019-04-10T21:05:34.358Z,12.27
2019-04-10T21:08:07.295Z,10.43
2019-04-10T21:10:40.884Z,10.97
2019-04-10T21:13:13.420Z,10.60
2019-04-10T21:15:46.319Z,11.07
2019-04-10T21:18:19.692Z,10.53
2019-04-10T21:20:53.716Z,10.23
2019-04-10T21:23:27.155Z,10.43
2019-04-10T21:25:59.677Z,10.23
2019-04-10T21:28:32.062Z,11.03
2019-04-10T21:31:42.691Z,9.93
2019-04-10T21:34:23.120Z,10.23
2019-04-10T21:36:55.624Z,9.97
2019-04-10T21:39:28.039Z,10.60
2019-04-10T21:42:11.976Z,9.63
2019-04-10T21:44:35.162Z,10.07
2019-04-10T21:47:08.820Z,10.40
2019-04-10T21:49:41.463Z,9.57
2019-04-10T21:52:14.305Z,10.70
2019-04-10T21:54:51.139Z,10.60
2019-04-10T21:57:20.846Z,9.87
2019-04-10T21:59:53.839Z,10.63
2019-04-10T22:02:27.294Z,8.90
2019-04-10T22:05:00.129Z,9.07
2019-04-10T22:07:58.821Z,8.73
2019-04-10T22:10:37.077Z,9.70
2019-04-10T22:13:09.474Z,9.27
2019-04-10T22:15:44.907Z,9.13
2019-04-10T22:18:17.491Z,10.27
2019-04-10T22:20:50.141Z,8.70
2019-04-10T22:23:22.534Z,9.57
2019-04-10T22:25:54.933Z,9.00
2019-04-10T22:28:27.336Z,10.70
2019-04-10T22:31:00.279Z,8.40
2019-04-10T22:33:32.722Z,9.13
2019-04-10T22:36:05.215Z,8.53
2019-04-10T22:38:37.809Z,9.60
2019-04-10T22:41:20.681Z,9.10
2019-04-10T22:43:44.943Z,7.93
2019-04-10T22:46:17.517Z,8.07
2019-04-10T22:48:50.074Z,9.43
2019-04-10T22:51:22.535Z,9.10
2019-04-10T22:53:55.645Z,12.03
2019-04-10T22:56:29.362Z,8.20
2019-04-10T22:59:01.854Z,8.77
2019-04-10T23:01:35.476Z,10.23
2019-04-10T23:04:08.082Z,8.63
2019-04-10T23:06:41.562Z,9.23
2019-04-10T23:09:14.062Z,10.23
2019-04-10T23:11:46.934Z,8.23
2019-04-10T23:14:20.498Z,8.97
2019-04-10T23:16:53.256Z,8.17
2019-04-10T23:19:25.867Z,8.60
2019-04-10T23:21:58.360Z,9.93
2019-04-10T23:24:31.808Z,8.23
2019-04-10T23:27:04.295Z,8.67
2019-04-10T23:29:36.682Z,8.43
2019-04-10T23:32:09.085Z,8.53
2019-04-10T23:34:41.471Z,7.97
2019-04-10T23:37:14.937Z,8.13
2019-04-10T23:39:48.454Z,8.50
2019-04-10T23:42:21.329Z,7.90
2019-04-10T23:44:53.792Z,8.53
2019-04-10T23:47:26.315Z,8.47
2019-04-10T23:49:59.700Z,8.63
2019-04-10T23:52:32.186Z,8.60
2019-04-10T23:55:05.878Z,8.07
2019-04-10T23:57:38.321Z,7.57
